首页
METAR-TAF:

METAR-TAF

机场 :

Laupheim, 德国

纬度: 48-13N, 经度: 009-55E, 海拔: 538米

当前天气观测

该预报发布于40分钟前的06:20 UTC
风速4节,风向北转东北
温度 3°C
湿度 100%
气压 1006 hPa
能見度: 2000
阴天层高于300英尺
小雨, 轻雾

METAR: ETHL 170620Z 02004KT 2000 -RA BR OVC003 03/03 Q1006 YLO

时间: 08:00 (07:00 UTC)


TAF: 丢失

超过4000个机场的气象观测和天气预报(METAR&TAF报告)。

可查询的气象台以黄色和红色小点在地图上表示。

将鼠标移到小点上方,可查看气象台名称。

然后点击查看天气观测和预报。

如需切换地图:点击带黑十字的绿色按钮放大地图;点击带横线的绿色按钮缩小地图;或者点击绿色箭头查看邻近地区的地图。


METAR-TAF: